Time;durP1;ratioP1;P1;durP2;ratioP2;P2;SDS_P1;SDS_P2;PMS_P1;PMS_P2;Temp;Humidity;BMP_temperature;BMP_pressure;BME280_temperature;BME280_humidity;BME280_pressure;Samples;Min_cycle;Max_cycle;Signal;HPM_P1;HPM_P2
2023/07/05 00:00:06;;;;;;;4.80;1.42;;;21.50;99.90;;;;;;4824287;29;20043;-81
2023/07/05 00:02:32;;;;;;;2.03;1.13;;;21.50;99.90;;;;;;4824405;29;20054;-81
2023/07/05 00:04:59;;;;;;;2.47;1.45;;;21.50;99.90;;;;;;4817045;29;20054;-80
2023/07/05 00:07:26;;;;;;;2.60;1.10;;;21.50;99.90;;;;;;4819697;29;20452;-82
2023/07/05 00:09:53;;;;;;;2.75;1.30;;;21.50;99.90;;;;;;4819496;29;20055;-82
2023/07/05 00:12:20;;;;;;;1.95;1.25;;;21.50;99.90;;;;;;4819181;29;20062;-82
2023/07/05 00:14:47;;;;;;;2.95;1.30;;;21.50;99.90;;;;;;4817456;29;20051;-81
2023/07/05 00:17:13;;;;;;;2.13;1.48;;;21.40;99.90;;;;;;4823980;29;20049;-81
2023/07/05 00:19:41;;;;;;;2.70;1.27;;;21.40;99.90;;;;;;4818458;29;20058;-82
2023/07/05 00:22:08;;;;;;;2.25;0.93;;;21.40;99.90;;;;;;4816202;29;20113;-81
2023/07/05 00:24:35;;;;;;;3.00;1.38;;;21.40;99.90;;;;;;4820682;29;20545;-81
2023/07/05 00:27:02;;;;;;;2.55;1.35;;;21.40;99.90;;;;;;4813965;29;20061;-82
2023/07/05 00:29:29;;;;;;;1.92;1.38;;;21.40;99.90;;;;;;4822271;29;20058;-81
2023/07/05 00:31:56;;;;;;;2.08;1.10;;;21.30;99.90;;;;;;4820314;29;20046;-82
2023/07/05 00:34:23;;;;;;;1.98;1.23;;;21.30;99.90;;;;;;4818328;29;20050;-82
2023/07/05 00:36:49;;;;;;;3.35;1.40;;;21.30;99.90;;;;;;4819185;29;20050;-82
2023/07/05 00:43:03;;;;;;;2.38;0.98;;;21.30;99.90;;;;;;4819906;29;20102;-78
2023/07/05 00:45:41;;;;;;;3.92;1.25;;;21.30;99.90;;;;;;4815032;29;20091;-80
2023/07/05 00:48:13;;;;;;;2.83;1.15;;;21.30;99.90;;;;;;4824557;29;20419;-79
2023/07/05 00:50:45;;;;;;;4.18;1.25;;;21.30;99.90;;;;;;4823549;29;20089;-80
2023/07/05 00:53:12;;;;;;;2.55;1.30;;;21.30;99.90;;;;;;4827052;29;20517;-80
2023/07/05 00:55:44;;;;;;;3.13;1.38;;;21.30;99.90;;;;;;4821658;29;20050;-79
2023/07/05 00:58:11;;;;;;;1.25;0.90;;;21.30;99.90;;;;;;4812131;29;20047;-81
2023/07/05 01:00:39;;;;;;;1.90;1.40;;;21.30;99.90;;;;;;4825278;29;20110;-79
2023/07/05 01:03:10;;;;;;;2.78;1.20;;;21.30;99.90;;;;;;4827008;29;20105;-79
2023/07/05 01:05:37;;;;;;;5.68;1.75;;;21.20;99.90;;;;;;4828151;29;20133;-79
2023/07/05 01:08:05;;;;;;;4.20;1.50;;;21.20;99.90;;;;;;4828449;29;20098;-79
2023/07/05 01:10:32;;;;;;;7.55;2.30;;;21.20;99.90;;;;;;4811233;29;20064;-80
2023/07/05 01:13:15;;;;;;;3.13;1.50;;;21.20;99.90;;;;;;4830109;29;20063;-79
2023/07/05 01:15:49;;;;;;;3.33;1.27;;;21.20;99.90;;;;;;4825908;29;20097;-80
2023/07/05 01:18:40;;;;;;;2.00;1.40;;;21.20;99.90;;;;;;4826626;29;20046;-80
2023/07/05 01:21:25;;;;;;;5.85;1.65;;;21.10;99.90;;;;;;4828027;29;20077;-79
2023/07/05 01:24:02;;;;;;;4.35;1.40;;;21.00;99.90;;;;;;4828054;29;20225;-81
2023/07/05 01:26:43;;;;;;;2.60;1.45;;;20.80;99.90;;;;;;4828101;29;20103;-79
2023/07/05 01:29:22;;;;;;;2.97;1.35;;;20.80;99.90;;;;;;4808330;29;20149;-79
2023/07/05 01:31:49;;;;;;;3.17;1.23;;;20.70;99.90;;;;;;4830217;29;20107;-79
2023/07/05 01:34:30;;;;;;;3.13;1.40;;;20.60;99.90;;;;;;4831456;29;20071;-79
2023/07/05 01:36:57;;;;;;;2.28;1.42;;;20.60;99.90;;;;;;4837910;29;20110;-79
2023/07/05 01:39:24;;;;;;;3.13;1.60;;;20.60;99.90;;;;;;4829649;29;20047;-79
2023/07/05 01:41:51;;;;;;;4.60;1.70;;;20.60;99.90;;;;;;4832751;29;20055;-79
2023/07/05 01:44:18;;;;;;;1.92;1.50;;;20.60;99.90;;;;;;4827633;29;20093;-79
2023/07/05 01:46:52;;;;;;;3.05;1.50;;;20.60;99.90;;;;;;4831217;29;20062;-79
2023/07/05 01:49:48;;;;;;;2.95;1.40;;;20.60;99.90;;;;;;4828879;29;20050;-80
2023/07/05 01:52:41;;;;;;;7.25;1.45;;;20.60;99.90;;;;;;4833414;29;20079;-80
2023/07/05 01:55:34;;;;;;;2.13;1.38;;;20.60;99.90;;;;;;4833026;29;20106;-80
2023/07/05 01:58:09;;;;;;;3.88;1.70;;;20.60;99.90;;;;;;4833266;29;20126;-78
2023/07/05 02:00:38;;;;;;;3.55;1.95;;;20.60;99.90;;;;;;4830670;29;20083;-79
2023/07/05 02:03:10;;;;;;;3.05;1.75;;;20.60;99.90;;;;;;4832856;29;20084;-79
2023/07/05 02:05:37;;;;;;;3.05;1.77;;;20.60;99.90;;;;;;4833524;29;20111;-79
2023/07/05 02:08:04;;;;;;;3.85;1.35;;;20.60;99.90;;;;;;4834652;29;20054;-78
2023/07/05 02:10:32;;;;;;;6.05;1.40;;;20.50;99.90;;;;;;4832775;29;20050;-80
2023/07/05 02:13:02;;;;;;;2.85;1.55;;;20.60;99.90;;;;;;4833177;29;20050;-81
2023/07/05 02:15:29;;;;;;;;;;;20.60;99.90;;;;;;4831031;29;20055;-80
2023/07/05 02:17:55;;;;;;;2.55;1.17;;;20.50;99.90;;;;;;4831381;29;19924;-81
2023/07/05 02:20:22;;;;;;;2.95;1.40;;;20.50;99.90;;;;;;4831255;29;20269;-80
2023/07/05 02:22:49;;;;;;;2.45;1.60;;;20.50;99.90;;;;;;4834852;29;20054;-80
2023/07/05 02:25:16;;;;;;;3.40;1.48;;;20.50;99.90;;;;;;4833134;29;20079;-80
2023/07/05 02:27:43;;;;;;;1.40;1.23;;;20.50;99.90;;;;;;4833323;29;20096;-80
2023/07/05 02:30:10;;;;;;;4.10;1.27;;;20.40;99.90;;;;;;4817467;29;20050;-81
2023/07/05 02:32:37;;;;;;;2.83;1.30;;;20.50;99.90;;;;;;4831245;29;20083;-80
2023/07/05 02:35:04;;;;;;;2.00;1.20;;;20.50;99.90;;;;;;4835818;29;20399;-81
2023/07/05 02:37:32;;;;;;;2.75;1.63;;;20.50;99.90;;;;;;4833522;29;20107;-81
2023/07/05 02:39:59;;;;;;;2.63;1.40;;;20.40;99.90;;;;;;4833859;29;20057;-80
2023/07/05 02:42:26;;;;;;;3.70;1.92;;;20.40;99.90;;;;;;4815815;29;20050;-80
2023/07/05 02:44:55;;;;;;;4.50;1.38;;;20.40;99.90;;;;;;4829743;29;20107;-80
2023/07/05 02:47:22;;;;;;;3.40;1.52;;;20.30;99.90;;;;;;4831137;29;20050;-80
2023/07/05 02:49:49;;;;;;;3.38;1.65;;;20.30;99.90;;;;;;4833883;29;20504;-80
2023/07/05 02:52:16;;;;;;;6.20;2.00;;;20.30;99.90;;;;;;4810118;29;20133;-80
2023/07/05 02:54:43;;;;;;;4.82;1.88;;;20.20;99.90;;;;;;4833344;29;20099;-81
2023/07/05 02:57:09;;;;;;;4.30;1.90;;;20.20;99.90;;;;;;4833361;29;20049;-79
2023/07/05 02:59:36;;;;;;;2.55;1.70;;;20.20;99.90;;;;;;4829479;29;20076;-80
2023/07/05 03:02:03;;;;;;;2.65;1.73;;;20.10;99.90;;;;;;4836439;29;20119;-79
2023/07/05 03:04:30;;;;;;;2.70;1.63;;;20.10;99.90;;;;;;4832219;29;20142;-79
2023/07/05 03:06:57;;;;;;;4.25;1.67;;;20.10;99.90;;;;;;4833062;29;20050;-79
2023/07/05 03:09:24;;;;;;;4.22;1.75;;;20.10;99.90;;;;;;4830435;29;20107;-81
2023/07/05 03:11:50;;;;;;;3.42;1.90;;;20.10;99.90;;;;;;4831333;29;20113;-80
2023/07/05 03:14:17;;;;;;;6.35;1.60;;;20.10;99.90;;;;;;4829945;29;20046;-80
2023/07/05 03:16:44;;;;;;;6.15;1.90;;;20.10;99.90;;;;;;4834013;29;20055;-80
2023/07/05 03:19:11;;;;;;;2.58;1.80;;;20.10;99.90;;;;;;4833562;29;20054;-79
2023/07/05 03:21:38;;;;;;;3.25;1.77;;;20.00;99.90;;;;;;4830691;29;20065;-80
2023/07/05 03:24:05;;;;;;;4.65;1.70;;;20.00;99.90;;;;;;4830988;29;20488;-80
2023/07/05 03:26:31;;;;;;;3.88;1.83;;;20.00;99.90;;;;;;4829297;29;20130;-80
2023/07/05 03:28:58;;;;;;;5.22;2.10;;;20.00;99.90;;;;;;4830221;29;20054;-80
2023/07/05 03:31:25;;;;;;;4.70;1.80;;;20.00;99.90;;;;;;4834360;29;20397;-80
2023/07/05 03:33:53;;;;;;;2.13;1.70;;;20.00;99.90;;;;;;4833389;29;20058;-80
2023/07/05 03:36:20;;;;;;;4.00;2.03;;;20.00;99.90;;;;;;4833544;29;20050;-78
2023/07/05 03:38:51;;;;;;;3.25;1.90;;;19.90;99.90;;;;;;4802887;29;20141;-81
2023/07/05 03:41:19;;;;;;;;;;;19.90;99.90;;;;;;4812361;29;20122;-78
2023/07/05 03:43:56;;;;;;;1.70;1.45;;;19.80;99.90;;;;;;4828827;29;19925;-80
2023/07/05 03:46:23;;;;;;;3.80;2.05;;;19.90;99.90;;;;;;4833307;29;20123;-79
2023/07/05 03:48:50;;;;;;;4.20;2.50;;;19.80;99.90;;;;;;4828397;29;20050;-77
2023/07/05 03:51:19;;;;;;;2.78;2.15;;;19.90;99.90;;;;;;4834941;29;20428;-81
2023/07/05 03:53:53;;;;;;;2.63;1.70;;;19.80;99.90;;;;;;4835184;29;20050;-80
2023/07/05 03:56:20;;;;;;;7.18;2.00;;;19.80;99.90;;;;;;4817518;29;20046;-79
2023/07/05 03:58:48;;;;;;;6.65;2.03;;;19.80;99.90;;;;;;4829455;29;20083;-79
2023/07/05 04:01:23;;;;;;;2.72;1.92;;;19.90;99.90;;;;;;4832162;29;20050;-77
2023/07/05 04:03:53;;;;;;;8.07;1.98;;;19.80;99.90;;;;;;4827394;29;20054;-79
2023/07/05 04:06:23;;;;;;;5.10;2.78;;;19.90;99.90;;;;;;4810824;29;20423;-79
2023/07/05 04:08:50;;;;;;;4.60;1.80;;;19.90;99.90;;;;;;4824676;29;20054;-80
2023/07/05 04:11:17;;;;;;;2.42;1.70;;;19.90;99.90;;;;;;4825486;29;20089;-80
2023/07/05 04:13:45;;;;;;;2.65;2.05;;;19.90;99.90;;;;;;4823707;29;20066;-80
2023/07/05 04:16:15;;;;;;;3.05;1.80;;;20.00;99.90;;;;;;4808470;29;20536;-80
2023/07/05 04:18:43;;;;;;;5.17;2.23;;;20.00;99.90;;;;;;4824080;29;20050;-80
2023/07/05 04:21:10;;;;;;;2.80;1.75;;;20.00;99.90;;;;;;4827659;29;20347;-80
2023/07/05 04:23:39;;;;;;;2.67;1.95;;;20.00;99.90;;;;;;4825493;29;20054;-81
2023/07/05 04:26:09;;;;;;;3.13;2.10;;;20.10;99.90;;;;;;4825380;29;20058;-80
2023/07/05 04:28:37;;;;;;;3.60;1.92;;;20.10;99.90;;;;;;4825316;29;20114;-80
2023/07/05 04:31:09;;;;;;;9.60;2.30;;;20.10;99.90;;;;;;4829559;29;20089;-80
2023/07/05 04:33:36;;;;;;;4.15;1.90;;;20.10;99.90;;;;;;4823550;29;20498;-80
2023/07/05 04:36:04;;;;;;;3.45;2.05;;;20.10;99.90;;;;;;4829993;29;20504;-80
2023/07/05 04:38:41;;;;;;;3.10;1.63;;;20.10;99.90;;;;;;4825097;29;20458;-80
2023/07/05 04:41:09;;;;;;;3.28;1.83;;;20.10;99.90;;;;;;4826118;29;20051;-80
2023/07/05 04:43:35;;;;;;;3.10;1.98;;;20.10;99.90;;;;;;4827128;29;20130;-81
2023/07/05 04:46:02;;;;;;;3.67;1.65;;;20.10;99.90;;;;;;4832423;29;20062;-81
2023/07/05 04:48:30;;;;;;;4.45;1.85;;;20.20;99.90;;;;;;4830861;29;20137;-81
2023/07/05 04:50:57;;;;;;;3.00;1.90;;;20.20;99.90;;;;;;4827099;29;20149;-80
2023/07/05 04:53:27;;;;;;;4.30;2.10;;;20.20;99.90;;;;;;4822556;29;20050;-80
2023/07/05 04:55:56;;;;;;;4.37;1.70;;;20.30;99.90;;;;;;4825468;29;20103;-80
2023/07/05 04:58:23;;;;;;;3.23;1.80;;;20.30;99.90;;;;;;4826066;29;20287;-81
2023/07/05 05:00:50;;;;;;;2.92;1.75;;;20.40;99.90;;;;;;4828472;29;20077;-80
2023/07/05 05:03:23;;;;;;;5.00;1.92;;;20.40;99.90;;;;;;4827475;29;20134;-80
2023/07/05 05:05:54;;;;;;;3.70;2.00;;;20.40;99.90;;;;;;4826813;29;20050;-82
2023/07/05 05:08:22;;;;;;;2.75;1.60;;;20.50;99.90;;;;;;4809198;29;20050;-80
2023/07/05 05:11:00;;;;;;;3.38;1.70;;;20.50;99.90;;;;;;4824238;29;20062;-80
2023/07/05 05:13:29;;;;;;;2.13;1.60;;;20.40;99.90;;;;;;4825994;29;20110;-80
2023/07/05 05:15:57;;;;;;;4.47;1.40;;;20.40;99.90;;;;;;4828634;29;20110;-80
2023/07/05 05:18:27;;;;;;;2.13;1.55;;;20.40;99.90;;;;;;4825732;29;20103;-80
2023/07/05 05:20:54;;;;;;;2.97;1.60;;;20.40;99.90;;;;;;4827699;29;20050;-80
2023/07/05 05:23:21;;;;;;;3.45;1.70;;;20.50;99.90;;;;;;4825656;29;20046;-81
2023/07/05 05:25:49;;;;;;;3.45;1.55;;;20.50;99.90;;;;;;4826903;29;20062;-81
2023/07/05 05:28:16;;;;;;;3.05;1.88;;;20.50;99.90;;;;;;4811550;29;20050;-80
2023/07/05 05:30:44;;;;;;;2.08;1.67;;;20.50;99.90;;;;;;4828659;29;20058;-80
2023/07/05 05:33:16;;;;;;;5.03;1.73;;;20.50;99.90;;;;;;4828664;29;20079;-81
2023/07/05 05:35:47;;;;;;;2.78;1.77;;;20.60;99.90;;;;;;4826289;29;20105;-81
2023/07/05 05:38:18;;;;;;;2.03;1.30;;;20.60;99.90;;;;;;4824420;29;20130;-81
2023/07/05 05:40:48;;;;;;;2.75;1.35;;;20.60;99.90;;;;;;4829082;29;20141;-81
2023/07/05 05:43:15;;;;;;;2.30;1.40;;;20.70;99.90;;;;;;4827946;29;20129;-84
2023/07/05 05:45:42;;;;;;;3.90;1.50;;;20.70;99.90;;;;;;4830549;29;20107;-80
2023/07/05 05:48:09;;;;;;;2.25;1.20;;;20.70;99.90;;;;;;4828036;29;20058;-81
2023/07/05 05:50:36;;;;;;;3.40;1.10;;;20.60;99.90;;;;;;4826207;29;20532;-81
2023/07/05 05:53:03;;;;;;;2.88;0.88;;;20.60;99.90;;;;;;4827474;29;20058;-78
2023/07/05 05:55:29;;;;;;;1.75;0.80;;;20.60;99.90;;;;;;4830344;29;20050;-80
2023/07/05 05:57:56;;;;;;;1.20;1.00;;;20.40;99.90;;;;;;4812990;29;20158;-81
2023/07/05 06:00:23;;;;;;;3.28;1.65;;;20.30;99.90;;;;;;4830103;29;20128;-81
2023/07/05 06:02:51;;;;;;;2.97;1.38;;;20.30;99.90;;;;;;4826182;29;20085;-82
2023/07/05 06:05:17;;;;;;;4.85;1.38;;;20.20;99.90;;;;;;4826647;29;20061;-80
2023/07/05 06:07:44;;;;;;;1.90;1.20;;;20.10;99.90;;;;;;4824681;29;20120;-82
2023/07/05 06:10:11;;;;;;;2.22;1.30;;;20.00;99.90;;;;;;4828426;29;20074;-81
2023/07/05 06:12:41;;;;;;;2.40;1.30;;;19.90;99.90;;;;;;4865455;23;20057;-77
2023/07/05 06:15:13;;;;;;;4.13;1.30;;;19.80;99.90;;;;;;4847475;29;20081;-77
2023/07/05 06:17:41;;;;;;;3.97;1.38;;;19.80;99.90;;;;;;4859350;29;20083;-77
2023/07/05 06:20:10;;;;;;;3.53;1.55;;;19.80;99.90;;;;;;4858560;29;20128;-77
2023/07/05 06:22:38;;;;;;;2.20;1.40;;;19.80;99.90;;;;;;4856612;29;20057;-77
2023/07/05 06:25:05;;;;;;;2.70;1.30;;;19.80;99.90;;;;;;4852128;29;20058;-78
2023/07/05 06:27:33;;;;;;;1.98;1.70;;;19.80;99.90;;;;;;4854659;29;20058;-77
2023/07/05 06:30:00;;;;;;;1.10;1.02;;;19.80;99.90;;;;;;4850687;29;20587;-77
2023/07/05 06:32:27;;;;;;;3.13;1.50;;;19.90;99.90;;;;;;4862680;29;20459;-78
2023/07/05 06:34:53;;;;;;;2.22;1.35;;;20.00;99.90;;;;;;4850236;29;20050;-78
2023/07/05 06:37:20;;;;;;;3.40;1.45;;;20.00;99.90;;;;;;4859024;29;20161;-77
2023/07/05 06:39:47;;;;;;;7.18;1.33;;;20.10;99.90;;;;;;4845362;29;20126;-77
2023/07/05 06:42:14;;;;;;;2.75;1.33;;;20.20;99.90;;;;;;4854110;29;20097;-77
2023/07/05 06:44:40;;;;;;;4.80;2.25;;;20.20;99.90;;;;;;4855811;29;20061;-77
2023/07/05 06:47:07;;;;;;;2.80;1.55;;;20.20;99.90;;;;;;4848319;29;20542;-77
2023/07/05 06:49:34;;;;;;;2.80;1.35;;;20.20;99.90;;;;;;4850344;29;20100;-77
2023/07/05 06:52:01;;;;;;;1.77;1.27;;;20.20;99.90;;;;;;4858548;29;20531;-77
2023/07/05 06:54:28;;;;;;;3.42;1.20;;;19.90;99.90;;;;;;4845857;29;20078;-77
2023/07/05 06:56:55;;;;;;;1.73;1.10;;;19.90;99.90;;;;;;4850825;29;20095;-77
2023/07/05 06:59:22;;;;;;;1.73;1.23;;;19.80;99.90;;;;;;4858812;29;20046;-77
2023/07/05 07:01:49;;;;;;;1.75;0.98;;;19.80;99.90;;;;;;4857052;29;20061;-77
2023/07/05 07:04:15;;;;;;;2.25;1.05;;;19.80;99.90;;;;;;4860128;29;20061;-77
2023/07/05 07:06:42;;;;;;;1.98;1.10;;;19.80;99.90;;;;;;4860157;29;20061;-77
2023/07/05 07:09:12;;;;;;;3.35;1.30;;;19.90;99.90;;;;;;4852994;29;20122;-77
2023/07/05 07:11:39;;;;;;;4.60;1.67;;;19.90;99.90;;;;;;4852625;29;20061;-78
2023/07/05 07:14:05;;;;;;;2.95;1.08;;;20.00;99.90;;;;;;4856449;29;20083;-77
2023/07/05 07:16:32;;;;;;;2.28;1.15;;;20.10;99.90;;;;;;4870545;29;20065;-77
2023/07/05 07:18:59;;;;;;;1.48;1.15;;;20.20;99.90;;;;;;4868083;29;20056;-77
2023/07/05 07:21:26;;;;;;;1.15;1.00;;;20.40;99.90;;;;;;4874875;29;20061;-78
2023/07/05 07:23:53;;;;;;;2.28;0.90;;;20.40;99.90;;;;;;4870028;29;20114;-77
2023/07/05 07:26:23;;;;;;;1.90;0.98;;;20.50;99.90;;;;;;4867430;29;20128;-78
2023/07/05 07:28:53;;;;;;;2.65;1.23;;;20.50;99.90;;;;;;4869576;29;20145;-77
2023/07/05 07:31:29;;;;;;;1.10;1.00;;;20.50;99.90;;;;;;4850605;29;20088;-78
2023/07/05 07:33:56;;;;;;;2.40;1.50;;;20.50;99.90;;;;;;4866454;29;20049;-78
2023/07/05 07:36:26;;;;;;;1.10;1.00;;;20.50;99.90;;;;;;4872462;29;20048;-77
2023/07/05 07:38:54;;;;;;;2.13;0.82;;;20.50;99.90;;;;;;4860537;29;20056;-77
2023/07/05 07:41:30;;;;;;;1.33;0.77;;;20.50;99.90;;;;;;4849617;29;20598;-77
2023/07/05 07:44:02;;;;;;;2.05;1.00;;;20.60;99.90;;;;;;4850991;29;20509;-77
2023/07/05 07:46:31;;;;;;;2.60;0.88;;;20.70;99.90;;;;;;4867082;29;20079;-77
2023/07/05 07:48:59;;;;;;;1.35;0.88;;;20.80;99.90;;;;;;4862231;29;20096;-77
2023/07/05 07:51:29;;;;;;;2.85;1.13;;;20.90;99.90;;;;;;4871846;29;20056;-77
2023/07/05 07:54:00;;;;;;;1.10;0.80;;;21.00;99.90;;;;;;4861750;29;20093;-78
2023/07/05 07:56:27;;;;;;;1.15;1.05;;;21.10;99.90;;;;;;4863790;29;20087;-77
2023/07/05 07:58:56;;;;;;;1.65;0.70;;;21.30;99.90;;;;;;4852036;29;20049;-78
2023/07/05 08:01:32;;;;;;;1.15;0.80;;;21.40;99.90;;;;;;4867433;29;20048;-76
2023/07/05 08:04:00;;;;;;;1.15;0.90;;;21.50;99.90;;;;;;4852499;29;20049;-77
2023/07/05 08:06:30;;;;;;;1.25;0.88;;;21.50;99.90;;;;;;4869108;29;20060;-76
2023/07/05 08:08:57;;;;;;;1.73;0.90;;;21.50;99.90;;;;;;4867127;29;20510;-77
2023/07/05 08:11:24;;;;;;;3.15;0.93;;;21.40;99.90;;;;;;4865103;29;20045;-76
2023/07/05 08:13:51;;;;;;;1.75;1.08;;;21.40;99.90;;;;;;4870875;29;20490;-77
2023/07/05 08:16:18;;;;;;;2.60;0.93;;;21.30;99.90;;;;;;4866624;29;20045;-76
2023/07/05 08:18:45;;;;;;;2.03;0.93;;;21.10;99.90;;;;;;4864084;29;20076;-76
2023/07/05 08:21:14;;;;;;;4.63;1.33;;;21.10;99.90;;;;;;4867876;29;20561;-77
2023/07/05 08:23:42;;;;;;;3.07;1.87;;;21.10;99.90;;;;;;4865226;29;20081;-77
2023/07/05 08:26:10;;;;;;;3.50;2.10;;;21.00;99.90;;;;;;4862514;29;20418;-77
2023/07/05 08:28:37;;;;;;;3.33;1.70;;;21.00;99.90;;;;;;4845866;29;20061;-76
2023/07/05 08:31:05;;;;;;;2.65;1.90;;;20.90;99.90;;;;;;4862429;29;20049;-77
2023/07/05 08:33:34;;;;;;;3.03;1.60;;;21.00;99.90;;;;;;4863797;29;20082;-78
2023/07/05 08:36:18;;;;;;;2.88;2.03;;;21.10;99.90;;;;;;4851183;29;20395;-77
2023/07/05 08:38:48;;;;;;;3.42;2.67;;;21.20;99.90;;;;;;4869110;29;20097;-76
2023/07/05 08:41:40;;;;;;;2.47;2.10;;;21.30;99.90;;;;;;4849237;29;20045;-77
2023/07/05 08:44:16;;;;;;;2.65;1.83;;;21.40;99.90;;;;;;4863188;29;20292;-77
2023/07/05 08:46:48;;;;;;;3.13;2.50;;;21.60;99.90;;;;;;4848454;29;20129;-76
2023/07/05 08:49:28;;;;;;;5.55;2.67;;;21.60;99.90;;;;;;4864895;29;20053;-77
2023/07/05 08:51:56;;;;;;;5.07;2.75;;;21.60;99.90;;;;;;4861111;29;20465;-77
2023/07/05 08:54:32;;;;;;;2.97;2.50;;;21.60;99.90;;;;;;4857924;29;20082;-76
2023/07/05 08:57:05;;;;;;;3.15;2.60;;;21.60;99.90;;;;;;4860727;29;20128;-77
2023/07/05 08:59:48;;;;;;;3.30;2.60;;;21.60;99.90;;;;;;4864663;29;20053;-77
2023/07/05 09:02:19;;;;;;;3.25;2.42;;;21.70;99.90;;;;;;4860377;29;20109;-77
2023/07/05 09:04:47;;;;;;;3.92;2.75;;;21.70;99.90;;;;;;4860905;29;20057;-77
2023/07/05 09:07:33;;;;;;;2.90;2.30;;;21.70;99.90;;;;;;4867999;29;20085;-77
2023/07/05 09:10:12;;;;;;;5.53;2.33;;;21.60;99.90;;;;;;4858030;29;20140;-77
2023/07/05 09:12:51;;;;;;;4.10;2.33;;;21.50;99.90;;;;;;4860205;29;20050;-77
2023/07/05 09:15:43;;;;;;;3.37;2.50;;;21.30;99.90;;;;;;4867910;29;20056;-77
2023/07/05 09:18:22;;;;;;;5.43;2.60;;;21.30;99.90;;;;;;4860033;29;20313;-77
2023/07/05 09:21:20;;;;;;;3.40;2.70;;;21.40;99.90;;;;;;4863442;29;20467;-76
2023/07/05 09:23:58;;;;;;;3.30;2.63;;;21.40;99.90;;;;;;4863348;29;20365;-77
2023/07/05 09:26:39;;;;;;;4.13;3.08;;;21.50;99.90;;;;;;4861270;29;20088;-75
2023/07/05 09:29:25;;;;;;;5.63;2.95;;;21.60;99.90;;;;;;4864512;29;20049;-76
2023/07/05 09:31:54;;;;;;;4.88;3.38;;;21.60;99.90;;;;;;4858448;29;20101;-77
2023/07/05 09:34:37;;;;;;;3.08;2.47;;;21.70;99.90;;;;;;4863188;29;20084;-76
2023/07/05 09:37:20;;;;;;;3.45;2.67;;;21.80;99.90;;;;;;4859388;29;20049;-76
2023/07/05 09:40:15;;;;;;;6.95;3.42;;;21.80;99.90;;;;;;4855209;29;20140;-77
2023/07/05 09:42:51;;;;;;;4.18;3.28;;;21.80;99.90;;;;;;4860299;29;20463;-77
2023/07/05 09:45:19;;;;;;;4.38;3.00;;;21.70;99.90;;;;;;4864237;29;20066;-77
2023/07/05 09:47:48;;;;;;;4.68;3.42;;;21.60;99.90;;;;;;4863270;29;20060;-77
2023/07/05 09:50:18;;;;;;;5.67;3.00;;;21.50;99.90;;;;;;4852387;29;20495;-75
2023/07/05 09:52:47;;;;;;;4.38;3.30;;;21.50;99.90;;;;;;4870536;29;20080;-76
2023/07/05 09:55:17;;;;;;;5.82;3.67;;;21.40;99.90;;;;;;4863397;29;20085;-75
2023/07/05 09:57:45;;;;;;;4.93;3.67;;;21.20;99.90;;;;;;4867117;29;20094;-76
2023/07/05 10:00:31;;;;;;;4.25;3.35;;;21.20;99.90;;;;;;4874330;29;20139;-76
2023/07/05 10:03:10;;;;;;;3.60;3.03;;;21.20;99.90;;;;;;4860372;29;20108;-75
2023/07/05 10:05:38;;;;;;;3.65;2.95;;;21.10;99.90;;;;;;4870072;29;20053;-78
2023/07/05 10:08:15;;;;;;;4.55;3.30;;;21.10;99.90;;;;;;4871102;29;20061;-76
2023/07/05 10:10:43;;;;;;;5.10;3.35;;;21.10;99.90;;;;;;4862643;29;20057;-76
2023/07/05 10:13:21;;;;;;;5.38;3.95;;;21.10;99.90;;;;;;4860352;29;20078;-76
2023/07/05 10:15:51;;;;;;;7.22;3.35;;;21.10;99.90;;;;;;4872305;29;20052;-76
2023/07/05 10:18:26;;;;;;;5.53;3.92;;;21.00;99.90;;;;;;4847637;29;20106;-76
2023/07/05 10:20:55;;;;;;;5.95;3.90;;;21.00;99.90;;;;;;4867426;29;20411;-76
2023/07/05 10:23:23;;;;;;;6.10;4.00;;;21.00;99.90;;;;;;4869455;29;20049;-77
2023/07/05 10:25:52;;;;;;;5.47;4.50;;;20.90;99.90;;;;;;4859915;29;20095;-76
2023/07/05 10:28:26;;;;;;;4.97;3.67;;;20.90;99.90;;;;;;4862821;29;20132;-76
2023/07/05 10:30:55;;;;;;;5.72;3.33;;;21.00;99.90;;;;;;4871361;29;20479;-76
2023/07/05 10:33:28;;;;;;;4.32;3.30;;;21.00;99.90;;;;;;4845517;29;20069;-75
2023/07/05 10:35:57;;;;;;;5.78;3.88;;;21.00;99.90;;;;;;4866043;29;20049;-76
2023/07/05 10:38:32;;;;;;;7.20;3.35;;;21.00;99.90;;;;;;4863781;29;20080;-76
2023/07/05 10:41:19;;;;;;;6.88;3.22;;;21.10;99.90;;;;;;4863878;29;20077;-76
2023/07/05 10:44:10;;;;;;;7.03;3.88;;;21.10;99.90;;;;;;4848960;29;20053;-76
2023/07/05 10:46:38;;;;;;;6.47;3.85;;;21.20;99.90;;;;;;4843340;29;20084;-76
2023/07/05 10:49:10;;;;;;;3.95;2.97;;;21.30;99.90;;;;;;4847121;29;20048;-76
2023/07/05 10:51:41;;;;;;;3.63;2.80;;;21.40;99.90;;;;;;4862578;29;20062;-76
2023/07/05 10:54:32;;;;;;;7.55;3.35;;;21.40;99.90;;;;;;4867177;29;20577;-76
2023/07/05 10:57:22;;;;;;;3.45;3.13;;;21.50;99.90;;;;;;4859994;29;20503;-76
2023/07/05 11:00:13;;;;;;;3.67;2.72;;;21.60;99.90;;;;;;4867881;29;20057;-76
2023/07/05 11:03:09;;;;;;;3.72;2.50;;;21.60;99.90;;;;;;4866730;29;20045;-76
2023/07/05 11:05:46;;;;;;;3.42;2.00;;;21.70;99.90;;;;;;4867102;29;20135;-76
2023/07/05 11:08:29;;;;;;;3.67;2.33;;;21.90;99.90;;;;;;4861911;29;20060;-75
2023/07/05 11:11:01;;;;;;;4.07;2.60;;;21.90;99.90;;;;;;4861266;29;20080;-79
2023/07/05 11:13:29;;;;;;;5.38;2.33;;;22.00;99.90;;;;;;4862670;29;20164;-76
2023/07/05 11:15:58;;;;;;;3.72;2.40;;;22.10;99.90;;;;;;4844835;29;20475;-77
2023/07/05 11:18:28;;;;;;;3.25;2.58;;;22.10;99.90;;;;;;4859310;29;20045;-76
2023/07/05 11:20:58;;;;;;;2.92;2.00;;;22.20;99.90;;;;;;4862602;29;20426;-76
2023/07/05 11:23:43;;;;;;;2.88;2.00;;;22.20;99.90;;;;;;4862740;29;20487;-76
2023/07/05 11:26:11;;;;;;;4.47;1.83;;;22.30;99.90;;;;;;4860500;29;20084;-76
2023/07/05 11:28:39;;;;;;;2.92;2.05;;;22.30;99.90;;;;;;4863404;29;20053;-76
2023/07/05 11:31:27;;;;;;;2.63;1.70;;;22.40;99.90;;;;;;4860751;29;20438;-76
2023/07/05 11:34:25;;;;;;;2.58;1.67;;;22.40;99.90;;;;;;4854593;29;20166;-76
2023/07/05 11:37:13;;;;;;;2.47;1.60;;;22.30;99.90;;;;;;4863743;29;20482;-75
2023/07/05 11:39:47;;;;;;;3.13;1.85;;;22.30;99.90;;;;;;4868776;29;20550;-75
2023/07/05 11:42:13;;;;;;;2.42;1.73;;;22.30;99.90;;;;;;4859034;29;20087;-76
2023/07/05 11:44:42;;;;;;;2.85;1.52;;;22.30;99.90;;;;;;4863766;29;20052;-76
2023/07/05 11:47:11;;;;;;;3.70;1.88;;;22.30;99.90;;;;;;4863413;29;20053;-76
2023/07/05 11:49:40;;;;;;;2.28;1.75;;;22.30;99.90;;;;;;4845097;29;20144;-76
2023/07/05 11:52:32;;;;;;;3.17;1.73;;;22.20;99.90;;;;;;4860803;29;20081;-75
2023/07/05 11:55:03;;;;;;;3.08;1.60;;;22.30;99.90;;;;;;4864216;29;20053;-76
2023/07/05 11:57:48;;;;;;;2.92;1.70;;;22.30;99.90;;;;;;4837618;29;20046;-74
2023/07/05 12:00:34;;;;;;;2.33;1.50;;;22.30;99.90;;;;;;4850689;29;20109;-76
2023/07/05 12:03:13;;;;;;;3.08;1.83;;;22.30;99.90;;;;;;4855426;29;20543;-75
2023/07/05 12:05:41;;;;;;;3.15;1.45;;;22.30;99.90;;;;;;4862276;29;20196;-76
2023/07/05 12:08:13;;;;;;;2.70;1.63;;;22.30;99.90;;;;;;4850082;29;20057;-75
2023/07/05 12:10:51;;;;;;;1.95;1.38;;;22.30;99.90;;;;;;4847368;29;20408;-76
2023/07/05 12:13:24;;;;;;;2.35;1.50;;;22.30;99.90;;;;;;4861003;29;20061;-76
2023/07/05 12:15:53;;;;;;;3.40;2.00;;;22.30;99.90;;;;;;4847114;29;20416;-76
2023/07/05 12:18:21;;;;;;;2.88;1.48;;;22.30;99.90;;;;;;4845231;29;20507;-76
2023/07/05 12:20:52;;;;;;;2.30;1.52;;;22.30;99.90;;;;;;4859331;29;20101;-75
2023/07/05 12:23:25;;;;;;;3.58;2.20;;;22.30;99.90;;;;;;4863386;29;20046;-75
2023/07/05 12:25:54;;;;;;;2.72;1.90;;;22.30;99.90;;;;;;4860754;29;20077;-76
2023/07/05 12:28:29;;;;;;;2.38;1.90;;;22.30;99.90;;;;;;4845498;29;20534;-76
2023/07/05 12:31:02;;;;;;;3.95;1.55;;;22.30;99.90;;;;;;4841234;29;20615;-76
2023/07/05 12:33:32;;;;;;;5.32;1.70;;;22.30;99.90;;;;;;4862919;29;20156;-76
2023/07/05 12:36:13;;;;;;;3.38;1.65;;;22.40;99.90;;;;;;4856015;29;20154;-76
2023/07/05 12:38:45;;;;;;;4.30;2.22;;;22.40;99.90;;;;;;4863184;29;20044;-75
2023/07/05 12:41:20;;;;;;;2.53;1.75;;;22.40;99.90;;;;;;4862892;29;20123;-75
2023/07/05 12:43:49;;;;;;;3.10;1.98;;;22.40;99.90;;;;;;4866018;29;20415;-75
2023/07/05 12:46:21;;;;;;;4.75;2.28;;;22.40;99.90;;;;;;4860020;29;20046;-75
2023/07/05 12:48:51;;;;;;;2.50;1.65;;;22.40;99.90;;;;;;4855823;29;20148;-75
2023/07/05 12:51:23;;;;;;;3.65;1.58;;;22.40;99.90;;;;;;4863132;29;20534;-76
2023/07/05 12:53:59;;;;;;;2.75;1.70;;;22.30;99.90;;;;;;4859711;29;20053;-79
2023/07/05 12:56:34;;;;;;;2.38;1.60;;;22.30;99.90;;;;;;4874108;29;20053;-76
2023/07/05 12:59:06;;;;;;;2.25;1.70;;;22.20;99.90;;;;;;4863113;29;20046;-76
2023/07/05 13:01:41;;;;;;;2.95;1.73;;;22.20;99.90;;;;;;4860321;29;20049;-75
2023/07/05 13:04:12;;;;;;;3.45;1.40;;;22.10;99.90;;;;;;4864793;29;20053;-74
2023/07/05 13:06:39;;;;;;;2.30;1.88;;;22.10;99.90;;;;;;4862337;29;20052;-76
2023/07/05 13:09:07;;;;;;;3.80;2.13;;;22.10;99.90;;;;;;4871071;29;20049;-75
2023/07/05 13:11:34;;;;;;;5.97;2.70;;;22.10;99.90;;;;;;4850513;29;20056;-76